Aviation Digital Data Service (ADDS)

Output produced by METARs form (2151 UTC 23 April 2019)
found at http://www.aviationweather.gov/metar/data/
 
METAR text: KGYI 232050Z 16006KT 10SM SCT060 BKN070 OVC090 23/17 A2999
Conditions at: KGYI (SHERMAN/DENISON , TX, US) observed 2050 UTC 23 April 2019
Temperature: 23.0°C (73°F)
Dewpoint: 17.0°C (63°F) [RH = 69%]
Pressure (altimeter): 29.99 inches Hg (1015.7 mb)
Winds: from the SSE (160 degrees) at 7 MPH (6 knots; 3.1 m/s)
Visibility: 10 or more miles (16+ km)
Ceiling: 7000 feet AGL
Clouds: scattered clouds at 6000 feet AGL
broken clouds at 7000 feet AGL
overcast cloud deck at 9000 feet AGL
Weather: no significant weather observed at this time